createdAt,value
2018-12-22T00:00:18.144Z,11.06
2018-12-22T00:02:22.297Z,10.99
2018-12-22T00:03:22.535Z,10.99
2018-12-22T00:05:26.702Z,10.97
2018-12-22T00:06:26.943Z,10.97
2018-12-22T00:08:31.094Z,11.02
2018-12-22T00:09:31.335Z,10.97
2018-12-22T00:11:35.509Z,11.06
2018-12-22T00:12:35.746Z,11.02
2018-12-22T00:14:28.854Z,10.92
2018-12-22T00:15:29.093Z,10.96
2018-12-22T00:17:33.244Z,10.99
2018-12-22T00:18:33.482Z,11.04
2018-12-22T00:20:37.658Z,11.06
2018-12-22T00:21:37.897Z,10.97
2018-12-22T00:23:42.045Z,10.97
2018-12-22T00:24:42.373Z,10.96
2018-12-22T00:26:46.455Z,10.94
2018-12-22T00:27:46.696Z,10.99
2018-12-22T00:29:50.868Z,11.03
2018-12-22T00:30:51.107Z,11.00
2018-12-22T00:32:55.262Z,11.03
2018-12-22T00:33:55.502Z,10.89
2018-12-22T00:35:59.672Z,10.89
2018-12-22T00:36:59.909Z,10.89
2018-12-22T00:39:04.062Z,11.02
2018-12-22T00:40:04.299Z,11.03
2018-12-22T00:42:08.475Z,10.92
2018-12-22T00:43:08.716Z,11.03
2018-12-22T00:45:12.890Z,10.97
2018-12-22T00:46:13.129Z,11.00
2018-12-22T00:48:17.282Z,10.92
2018-12-22T00:49:17.521Z,10.89
2018-12-22T00:51:21.694Z,10.94
2018-12-22T00:52:21.935Z,10.97
2018-12-22T00:54:15.020Z,10.91
2018-12-22T00:55:15.251Z,10.91
2018-12-22T00:57:19.428Z,10.86
2018-12-22T00:58:19.668Z,10.84
2018-12-22T01:00:23.822Z,10.82
2018-12-22T01:01:24.056Z,10.84
2018-12-22T01:03:28.235Z,10.79
2018-12-22T01:04:28.473Z,10.91
2018-12-22T01:06:32.645Z,10.92
2018-12-22T01:07:32.884Z,10.86
2018-12-22T01:09:37.110Z,10.91
2018-12-22T01:10:37.271Z,10.91
2018-12-22T01:12:41.443Z,10.82
2018-12-22T01:13:41.683Z,10.76
2018-12-22T01:15:45.855Z,10.79
2018-12-22T01:16:46.094Z,10.81
2018-12-22T01:18:50.250Z,10.74
2018-12-22T01:19:50.488Z,10.70
2018-12-22T01:21:54.662Z,10.67
2018-12-22T01:22:54.900Z,10.74
2018-12-22T01:24:47.979Z,10.71
2018-12-22T01:25:48.218Z,10.76
2018-12-22T01:27:52.392Z,10.74
2018-12-22T01:28:52.630Z,10.74
2018-12-22T01:30:56.819Z,10.73
2018-12-22T01:31:57.059Z,10.74
2018-12-22T01:34:01.207Z,10.73
2018-12-22T01:35:01.445Z,10.71
2018-12-22T01:37:05.616Z,10.74
2018-12-22T01:38:05.855Z,10.74
2018-12-22T01:40:10.006Z,10.79
2018-12-22T01:41:10.242Z,10.74
2018-12-22T01:43:14.413Z,10.88
2018-12-22T01:44:14.652Z,10.78
2018-12-22T01:46:18.824Z,10.70
2018-12-22T01:47:19.061Z,10.74
2018-12-22T01:49:23.212Z,10.70
2018-12-22T01:50:23.452Z,10.73
2018-12-22T01:52:27.623Z,10.68
2018-12-22T01:53:27.859Z,10.74
2018-12-22T01:55:32.011Z,10.73
2018-12-22T01:56:32.247Z,10.66
2018-12-22T01:58:36.421Z,10.55
2018-12-22T01:59:36.657Z,10.61
2018-12-22T02:01:40.830Z,10.59
2018-12-22T02:02:41.068Z,10.66
2018-12-22T02:04:34.148Z,10.70
2018-12-22T02:05:34.384Z,10.64
2018-12-22T02:07:38.557Z,10.61
2018-12-22T02:08:38.793Z,10.55
2018-12-22T02:10:42.945Z,10.60
2018-12-22T02:11:43.179Z,10.63
2018-12-22T02:13:47.351Z,10.70
2018-12-22T02:14:47.588Z,10.73
2018-12-22T02:16:51.761Z,10.81
2018-12-22T02:17:51.999Z,10.64
2018-12-22T02:19:56.151Z,10.81
2018-12-22T02:20:56.464Z,10.60
2018-12-22T02:23:00.564Z,10.73
2018-12-22T02:24:00.807Z,10.68
2018-12-22T02:26:04.960Z,10.67
2018-12-22T02:27:05.192Z,10.56
2018-12-22T02:29:09.360Z,10.53
2018-12-22T02:30:09.602Z,10.51
2018-12-22T02:32:13.774Z,10.48
2018-12-22T02:33:14.010Z,10.63
2018-12-22T02:35:18.159Z,10.70
2018-12-22T02:36:18.400Z,10.52
2018-12-22T02:38:22.571Z,10.64
2018-12-22T02:39:22.854Z,10.48
2018-12-22T02:41:27.000Z,10.56
2018-12-22T02:42:27.196Z,10.55
2018-12-22T02:44:20.295Z,10.52
2018-12-22T02:45:20.531Z,10.60
2018-12-22T02:47:24.703Z,10.63
2018-12-22T02:48:24.942Z,10.52
2018-12-22T02:50:29.090Z,10.55
2018-12-22T02:51:29.328Z,10.55
2018-12-22T02:53:33.503Z,10.64
2018-12-22T02:54:33.739Z,10.63
2018-12-22T02:56:37.898Z,10.53
2018-12-22T02:57:38.132Z,10.55
2018-12-22T02:59:42.311Z,10.55
2018-12-22T03:00:42.544Z,10.52
2018-12-22T03:02:46.720Z,10.45
2018-12-22T03:03:46.960Z,10.51
2018-12-22T03:05:51.111Z,10.45
2018-12-22T03:06:51.348Z,10.48
2018-12-22T03:08:55.521Z,10.52
2018-12-22T03:09:55.760Z,10.48
2018-12-22T03:11:59.909Z,10.51
2018-12-22T03:13:00.148Z,10.55
2018-12-22T03:15:04.323Z,10.55
2018-12-22T03:16:04.565Z,10.55
2018-12-22T03:18:08.734Z,10.41
2018-12-22T03:19:08.972Z,10.36
2018-12-22T03:21:13.119Z,10.45
2018-12-22T03:22:13.364Z,10.40
2018-12-22T03:24:06.463Z,10.45
2018-12-22T03:25:06.701Z,10.47
2018-12-22T03:27:10.860Z,10.48
2018-12-22T03:28:11.101Z,10.48
2018-12-22T03:30:15.271Z,10.52
2018-12-22T03:31:15.541Z,10.44
2018-12-22T03:33:19.845Z,10.47
2018-12-22T03:34:19.915Z,10.52
2018-12-22T03:36:24.066Z,10.51
2018-12-22T03:37:24.302Z,10.48
2018-12-22T03:39:28.479Z,10.55
2018-12-22T03:40:28.714Z,10.45
2018-12-22T03:42:32.867Z,10.52
2018-12-22T03:43:33.103Z,10.47
2018-12-22T03:45:37.272Z,10.60
2018-12-22T03:46:37.511Z,10.60
2018-12-22T03:48:41.683Z,10.45
2018-12-22T03:49:41.922Z,10.51
2018-12-22T03:51:46.078Z,10.48
2018-12-22T03:52:46.314Z,10.52
2018-12-22T03:54:39.415Z,10.59
2018-12-22T03:55:39.657Z,10.53
2018-12-22T03:57:43.806Z,10.66
2018-12-22T03:58:44.049Z,10.55
2018-12-22T04:00:48.222Z,10.53
2018-12-22T04:01:48.459Z,10.48
2018-12-22T04:03:52.615Z,10.48
2018-12-22T04:04:52.854Z,10.48
2018-12-22T04:06:57.034Z,10.48
2018-12-22T04:07:57.265Z,10.51
2018-12-22T04:10:01.446Z,10.64
2018-12-22T04:11:01.682Z,10.56
2018-12-22T04:13:05.841Z,10.55
2018-12-22T04:14:06.080Z,10.52
2018-12-22T04:16:10.256Z,10.52
2018-12-22T04:17:10.491Z,10.59
2018-12-22T04:19:14.637Z,10.48
2018-12-22T04:20:14.873Z,10.55
2018-12-22T04:22:19.048Z,10.51
2018-12-22T04:23:19.291Z,10.47
2018-12-22T04:25:23.472Z,10.52
2018-12-22T04:26:23.705Z,10.55
2018-12-22T04:28:27.854Z,10.52
2018-12-22T04:29:33.792Z,10.42
2018-12-22T04:31:32.268Z,10.48
2018-12-22T04:32:32.505Z,10.51
2018-12-22T04:34:25.661Z,10.51
2018-12-22T04:35:25.821Z,10.55
2018-12-22T04:37:29.998Z,10.51
2018-12-22T04:38:30.236Z,10.53
2018-12-22T04:40:34.415Z,10.56
2018-12-22T04:41:34.649Z,10.48
2018-12-22T04:43:38.803Z,10.64
2018-12-22T04:44:39.035Z,10.53
2018-12-22T04:46:43.209Z,10.53
2018-12-22T04:47:43.446Z,10.44
2018-12-22T04:49:47.630Z,10.32
2018-12-22T04:50:47.860Z,10.40
2018-12-22T04:52:52.032Z,10.44
2018-12-22T04:53:52.270Z,10.38
2018-12-22T04:55:56.438Z,10.40
2018-12-22T04:56:56.657Z,10.41
2018-12-22T04:59:00.827Z,10.36
2018-12-22T05:00:01.066Z,10.41
2018-12-22T05:02:05.216Z,10.38
2018-12-22T05:03:05.456Z,10.38
2018-12-22T05:05:09.631Z,10.51
2018-12-22T05:06:09.865Z,10.41
2018-12-22T05:08:14.038Z,10.38
2018-12-22T05:09:14.275Z,10.42
2018-12-22T05:11:18.487Z,10.30
2018-12-22T05:12:18.659Z,10.40
2018-12-22T05:14:11.761Z,10.29
2018-12-22T05:15:12.002Z,10.26
2018-12-22T05:17:16.151Z,10.34
2018-12-22T05:18:16.388Z,10.42
2018-12-22T05:20:20.586Z,10.33
2018-12-22T05:21:20.806Z,10.32
2018-12-22T05:23:24.976Z,10.34
2018-12-22T05:24:25.262Z,10.30
2018-12-22T05:26:29.365Z,10.26
2018-12-22T05:27:29.603Z,10.33
2018-12-22T05:29:33.777Z,10.30
2018-12-22T05:30:34.014Z,10.26
2018-12-22T05:32:38.167Z,10.38
2018-12-22T05:33:38.404Z,10.32
2018-12-22T05:35:42.585Z,10.25
2018-12-22T05:36:42.822Z,10.29
2018-12-22T05:38:46.993Z,10.20
2018-12-22T05:39:47.230Z,10.17
2018-12-22T05:41:51.377Z,9.91
2018-12-22T05:42:51.620Z,9.96
2018-12-22T05:44:44.714Z,9.83
2018-12-22T05:45:44.954Z,9.91
2018-12-22T05:47:49.104Z,9.84
2018-12-22T05:48:49.339Z,9.72
2018-12-22T05:50:53.512Z,9.86
2018-12-22T05:51:53.751Z,9.84
2018-12-22T05:53:57.921Z,9.96
2018-12-22T05:54:58.158Z,9.86
2018-12-22T05:57:02.308Z,9.94
2018-12-22T05:58:02.547Z,9.90
2018-12-22T06:00:06.724Z,9.83
2018-12-22T06:01:06.960Z,9.71
2018-12-22T06:03:11.110Z,9.65
2018-12-22T06:04:11.348Z,9.65
2018-12-22T06:06:15.522Z,9.68
2018-12-22T06:07:15.758Z,9.50
2018-12-22T06:09:19.930Z,9.53
2018-12-22T06:10:20.171Z,9.47
2018-12-22T06:12:24.320Z,9.47
2018-12-22T06:13:24.559Z,9.38
2018-12-22T06:15:28.733Z,9.47
2018-12-22T06:16:28.971Z,9.47
2018-12-22T06:18:33.144Z,9.46
2018-12-22T06:19:33.379Z,9.47
2018-12-22T06:21:37.529Z,9.39
2018-12-22T06:22:37.766Z,9.38
2018-12-22T06:24:30.869Z,9.43
2018-12-22T06:25:31.108Z,9.47
2018-12-22T06:27:35.257Z,9.47
2018-12-22T06:28:35.492Z,9.50
2018-12-22T06:30:39.667Z,9.42
2018-12-22T06:31:39.906Z,9.39
2018-12-22T06:33:44.080Z,9.54
2018-12-22T06:34:44.315Z,9.64
2018-12-22T06:36:48.466Z,9.75
2018-12-22T06:37:48.704Z,9.69
2018-12-22T06:39:52.873Z,9.81
2018-12-22T06:40:53.110Z,9.81
2018-12-22T06:42:57.260Z,9.89
2018-12-22T06:43:57.496Z,9.72
2018-12-22T06:46:01.664Z,9.66
2018-12-22T06:47:01.904Z,9.71
2018-12-22T06:49:06.075Z,9.79
2018-12-22T06:50:06.312Z,9.87
2018-12-22T06:52:10.463Z,9.71
2018-12-22T06:53:10.700Z,9.83
2018-12-22T06:55:14.871Z,9.87
2018-12-22T06:56:15.111Z,9.87
2018-12-22T06:58:19.260Z,9.89
2018-12-22T06:59:19.499Z,9.76
2018-12-22T07:01:23.665Z,9.83
2018-12-22T07:02:23.905Z,9.90
2018-12-22T07:04:17.003Z,9.86
2018-12-22T07:05:17.230Z,9.89
2018-12-22T07:07:21.396Z,9.83
2018-12-22T07:08:21.636Z,9.90
2018-12-22T07:10:25.806Z,9.84
2018-12-22T07:11:26.045Z,9.91
2018-12-22T07:13:30.187Z,9.83
2018-12-22T07:14:30.431Z,9.84
2018-12-22T07:16:34.604Z,9.84
2018-12-22T07:17:34.842Z,9.84
2018-12-22T07:19:39.014Z,9.86
2018-12-22T07:20:39.251Z,9.86
2018-12-22T07:22:43.399Z,9.86
2018-12-22T07:23:43.635Z,9.87
2018-12-22T07:25:47.812Z,9.89
2018-12-22T07:26:48.048Z,9.94
2018-12-22T07:28:52.198Z,9.91
2018-12-22T07:29:52.435Z,9.97
2018-12-22T07:31:56.604Z,9.99
2018-12-22T07:32:57.495Z,9.99
2018-12-22T07:34:49.946Z,10.04
2018-12-22T07:35:50.178Z,10.07
2018-12-22T07:37:54.326Z,9.99
2018-12-22T07:38:54.560Z,9.99
2018-12-22T07:40:58.734Z,10.09
2018-12-22T07:41:58.977Z,10.02
2018-12-22T07:44:03.124Z,10.17
2018-12-22T07:45:03.358Z,10.09
2018-12-22T07:47:07.532Z,10.09
2018-12-22T07:48:07.770Z,10.07
2018-12-22T07:50:11.951Z,10.22
2018-12-22T07:51:12.180Z,10.22
2018-12-22T07:53:16.329Z,10.15
2018-12-22T07:54:16.565Z,10.22
2018-12-22T07:56:20.735Z,10.22
2018-12-22T07:57:20.970Z,10.25
2018-12-22T07:59:25.140Z,10.23
2018-12-22T08:00:25.379Z,10.30
2018-12-22T08:02:29.531Z,10.22
2018-12-22T08:03:29.769Z,10.23
2018-12-22T08:05:38.692Z,10.17
2018-12-22T08:06:34.179Z,10.20
2018-12-22T08:08:38.419Z,10.08
2018-12-22T08:09:38.677Z,10.11
2018-12-22T08:11:42.737Z,10.11
2018-12-22T08:12:42.974Z,9.99
2018-12-22T08:14:36.072Z,9.93
2018-12-22T08:15:36.310Z,9.90
2018-12-22T08:17:40.461Z,9.89
2018-12-22T08:18:40.700Z,9.94
2018-12-22T08:20:44.872Z,9.86
2018-12-22T08:21:45.110Z,9.83
2018-12-22T08:23:49.257Z,9.86
2018-12-22T08:24:49.496Z,9.86
2018-12-22T08:26:53.667Z,9.74
2018-12-22T08:27:53.907Z,9.69
2018-12-22T08:29:58.075Z,9.64
2018-12-22T08:30:58.314Z,9.54
2018-12-22T08:33:02.460Z,9.64
2018-12-22T08:34:02.698Z,9.75
2018-12-22T08:36:06.866Z,9.69
2018-12-22T08:37:07.106Z,9.64
2018-12-22T08:39:11.258Z,9.47
2018-12-22T08:40:11.501Z,9.57
2018-12-22T08:42:15.671Z,9.57
2018-12-22T08:43:15.905Z,9.65
2018-12-22T08:45:20.084Z,9.58
2018-12-22T08:46:20.321Z,9.64
2018-12-22T08:48:24.469Z,9.58
2018-12-22T08:49:24.708Z,9.61
2018-12-22T08:51:28.878Z,9.64
2018-12-22T08:52:29.115Z,9.64
2018-12-22T08:54:22.193Z,9.64
2018-12-22T08:55:22.429Z,9.65
2018-12-22T08:57:26.597Z,9.60
2018-12-22T08:58:26.839Z,9.51
2018-12-22T09:00:31.008Z,9.51
2018-12-22T09:01:31.246Z,9.61
2018-12-22T09:03:35.437Z,9.66
2018-12-22T09:04:35.676Z,9.68
2018-12-22T09:06:39.855Z,9.66
2018-12-22T09:07:40.090Z,9.72
2018-12-22T09:09:44.238Z,9.66
2018-12-22T09:10:44.476Z,9.64
2018-12-22T09:12:48.665Z,9.54
2018-12-22T09:13:48.901Z,9.58
2018-12-22T09:15:53.077Z,9.64
2018-12-22T09:16:53.316Z,9.60
2018-12-22T09:18:57.471Z,9.84
2018-12-22T09:19:57.707Z,9.89
2018-12-22T09:22:01.885Z,9.58
2018-12-22T09:23:02.123Z,9.57
2018-12-22T09:25:06.282Z,9.50
2018-12-22T09:26:08.486Z,9.43
2018-12-22T09:28:10.695Z,9.40
2018-12-22T09:29:10.934Z,9.42
2018-12-22T09:31:16.128Z,9.40
2018-12-22T09:32:16.362Z,9.43
2018-12-22T09:34:13.417Z,9.42
2018-12-22T09:35:09.688Z,9.42
2018-12-22T09:37:13.869Z,9.47
2018-12-22T09:38:14.112Z,9.46
2018-12-22T09:40:18.273Z,9.50
2018-12-22T09:41:18.513Z,9.57
2018-12-22T09:43:22.693Z,9.60
2018-12-22T09:44:22.935Z,9.61
2018-12-22T09:46:27.123Z,9.61
2018-12-22T09:47:27.361Z,9.75
2018-12-22T09:49:31.518Z,9.54
2018-12-22T09:50:31.754Z,9.71
2018-12-22T09:52:35.931Z,9.53
2018-12-22T09:53:36.172Z,9.65
2018-12-22T09:55:40.350Z,9.53
2018-12-22T09:56:40.587Z,9.58
2018-12-22T09:58:44.740Z,9.51
2018-12-22T09:59:44.982Z,9.50
2018-12-22T10:01:49.163Z,9.53
2018-12-22T10:02:49.406Z,9.46
2018-12-22T10:04:42.488Z,9.51
2018-12-22T10:05:42.729Z,9.51
2018-12-22T10:07:46.913Z,9.58
2018-12-22T10:08:47.153Z,9.58
2018-12-22T10:10:51.333Z,9.66
2018-12-22T10:11:51.574Z,9.69
2018-12-22T10:13:55.724Z,9.76
2018-12-22T10:14:55.960Z,9.86
2018-12-22T10:17:00.134Z,9.84
2018-12-22T10:18:00.373Z,9.87
2018-12-22T10:20:04.525Z,9.91
2018-12-22T10:21:04.763Z,10.02
2018-12-22T10:23:08.937Z,10.04
2018-12-22T10:24:09.282Z,9.90
2018-12-22T10:26:13.385Z,9.74
2018-12-22T10:27:13.642Z,9.69
2018-12-22T10:29:17.816Z,9.74
2018-12-22T10:30:18.047Z,9.74
2018-12-22T10:32:22.254Z,9.69
2018-12-22T10:33:22.543Z,9.81
2018-12-22T10:35:26.728Z,9.74
2018-12-22T10:36:26.966Z,9.76
2018-12-22T10:38:31.160Z,9.84
2018-12-22T10:39:31.398Z,9.93
2018-12-22T10:41:35.602Z,9.94
2018-12-22T10:42:35.837Z,9.90
2018-12-22T10:44:28.915Z,9.91
2018-12-22T10:45:29.172Z,9.86
2018-12-22T10:47:33.355Z,9.84
2018-12-22T10:48:33.606Z,9.76
2018-12-22T10:50:37.773Z,9.68
2018-12-22T10:51:38.007Z,9.74
2018-12-22T10:53:42.230Z,9.74
2018-12-22T10:54:42.421Z,9.75
2018-12-22T10:56:46.598Z,9.68
2018-12-22T10:57:46.837Z,9.66
2018-12-22T10:59:50.985Z,9.65
2018-12-22T11:00:51.226Z,9.69
2018-12-22T11:02:55.401Z,9.71
2018-12-22T11:03:55.642Z,9.72
2018-12-22T11:05:59.794Z,9.75
2018-12-22T11:07:00.036Z,9.91
2018-12-22T11:09:04.210Z,9.87
2018-12-22T11:10:04.448Z,9.93
2018-12-22T11:12:08.628Z,10.09
2018-12-22T11:13:08.867Z,10.20
2018-12-22T11:15:13.050Z,10.66
2018-12-22T11:16:13.289Z,10.61
2018-12-22T11:18:17.462Z,10.61
2018-12-22T11:19:17.698Z,10.48
2018-12-22T11:21:21.870Z,10.51
2018-12-22T11:22:22.113Z,10.52
2018-12-22T11:24:15.194Z,10.44
2018-12-22T11:25:15.436Z,10.36
2018-12-22T11:27:19.614Z,10.25
2018-12-22T11:28:19.852Z,10.22
2018-12-22T11:30:24.012Z,10.17
2018-12-22T11:31:24.253Z,10.15
2018-12-22T11:33:28.428Z,10.05
2018-12-22T11:34:28.668Z,10.04
2018-12-22T11:36:32.852Z,9.90
2018-12-22T11:37:33.078Z,9.90
2018-12-22T11:39:37.240Z,9.93
2018-12-22T11:40:37.476Z,9.87
2018-12-22T11:42:47.628Z,9.89
2018-12-22T11:43:41.888Z,9.87
2018-12-22T11:45:46.038Z,10.08
2018-12-22T11:46:46.277Z,10.18
2018-12-22T11:48:50.451Z,10.20
2018-12-22T11:49:50.694Z,10.20
2018-12-22T11:51:54.874Z,9.99
2018-12-22T11:52:55.115Z,10.04
2018-12-22T11:54:48.203Z,10.07
2018-12-22T11:55:48.442Z,10.05
2018-12-22T11:57:52.613Z,10.02
2018-12-22T11:58:52.853Z,10.01
2018-12-22T12:00:57.008Z,9.94
2018-12-22T12:01:57.246Z,9.97
2018-12-22T12:04:01.425Z,10.01
2018-12-22T12:05:01.667Z,9.96
2018-12-22T12:07:05.839Z,10.04
2018-12-22T12:08:06.077Z,10.05
2018-12-22T12:10:10.234Z,10.12
2018-12-22T12:11:10.476Z,9.96
2018-12-22T12:13:14.648Z,10.01
2018-12-22T12:14:14.891Z,9.93
2018-12-22T12:16:19.050Z,10.05
2018-12-22T12:17:19.288Z,10.02
2018-12-22T12:19:23.462Z,10.08
2018-12-22T12:20:23.701Z,9.94
2018-12-22T12:22:27.887Z,10.12
2018-12-22T12:23:28.124Z,10.17
2018-12-22T12:25:32.279Z,10.23
2018-12-22T12:26:32.520Z,10.27
2018-12-22T12:28:36.698Z,10.29
2018-12-22T12:29:36.939Z,10.25
2018-12-22T12:31:41.095Z,10.20
2018-12-22T12:32:41.330Z,10.23
2018-12-22T12:34:34.431Z,10.23
2018-12-22T12:35:34.671Z,10.18
2018-12-22T12:37:38.844Z,10.23
2018-12-22T12:38:39.084Z,10.15
2018-12-22T12:40:43.240Z,10.18
2018-12-22T12:41:43.476Z,10.22
2018-12-22T12:43:47.656Z,10.22
2018-12-22T12:44:47.896Z,10.18
2018-12-22T12:46:52.047Z,10.17
2018-12-22T12:47:52.286Z,10.05
2018-12-22T12:49:56.521Z,10.11
2018-12-22T12:50:56.815Z,10.09
2018-12-22T12:53:09.424Z,10.20
2018-12-22T12:54:01.387Z,10.22
2018-12-22T12:56:05.581Z,10.25
2018-12-22T12:57:05.958Z,10.20
2018-12-22T12:59:10.300Z,10.22
2018-12-22T13:00:10.535Z,10.18
2018-12-22T13:02:14.807Z,10.25
2018-12-22T13:03:15.107Z,10.17
2018-12-22T13:05:19.473Z,10.14
2018-12-22T13:06:19.801Z,10.22
2018-12-22T13:08:24.977Z,10.22
2018-12-22T13:09:24.379Z,10.23
2018-12-22T13:11:28.692Z,10.34
2018-12-22T13:12:29.011Z,10.30
2018-12-22T13:14:22.233Z,10.38
2018-12-22T13:15:23.610Z,10.41
2018-12-22T13:17:26.797Z,10.20
2018-12-22T13:18:27.192Z,10.20
2018-12-22T13:20:32.170Z,10.20
2018-12-22T13:21:32.546Z,10.22
2018-12-22T13:23:37.927Z,10.23
2018-12-22T13:24:37.401Z,10.14
2018-12-22T13:26:41.942Z,10.18
2018-12-22T13:27:42.504Z,10.20
2018-12-22T13:29:35.283Z,10.22
2018-12-22T13:30:35.521Z,10.27
2018-12-22T13:32:39.679Z,10.25
2018-12-22T13:33:41.326Z,10.22
2018-12-22T13:35:44.385Z,10.20
2018-12-22T13:36:44.620Z,10.07
2018-12-22T13:38:48.974Z,10.05
2018-12-22T13:39:50.357Z,10.02
2018-12-22T13:41:54.020Z,10.09
2018-12-22T13:42:54.244Z,10.11
2018-12-22T13:44:49.981Z,10.17
2018-12-22T13:45:50.468Z,10.09
2018-12-22T13:47:55.092Z,10.08
2018-12-22T13:48:55.604Z,10.07
2018-12-22T13:50:59.913Z,9.99
2018-12-22T13:51:59.842Z,10.04
2018-12-22T13:54:04.019Z,9.91
2018-12-22T13:55:04.257Z,9.87
2018-12-22T13:57:08.440Z,10.02
2018-12-22T13:58:08.683Z,9.90
2018-12-22T14:00:12.858Z,9.74
2018-12-22T14:01:13.136Z,9.68
2018-12-22T14:03:17.294Z,9.68
2018-12-22T14:04:17.531Z,9.69
2018-12-22T14:06:21.723Z,9.57
2018-12-22T14:07:21.958Z,9.54
2018-12-22T14:09:26.229Z,9.46
2018-12-22T14:10:26.466Z,9.47
2018-12-22T14:12:30.628Z,9.35
2018-12-22T14:13:30.871Z,9.38
2018-12-22T14:15:35.127Z,9.31
2018-12-22T14:16:35.364Z,9.29
2018-12-22T14:18:39.564Z,9.18
2018-12-22T14:19:40.579Z,9.15
2018-12-22T14:21:43.967Z,9.20
2018-12-22T14:22:44.206Z,9.20
2018-12-22T14:24:37.322Z,9.14
2018-12-22T14:25:37.555Z,9.10
2018-12-22T14:27:41.714Z,8.99
2018-12-22T14:28:41.944Z,8.95
2018-12-22T14:30:46.123Z,8.98
2018-12-22T14:31:46.359Z,8.94
2018-12-22T14:33:50.512Z,8.96
2018-12-22T14:34:50.756Z,8.87
2018-12-22T14:36:54.922Z,9.01
2018-12-22T14:37:55.163Z,8.94
2018-12-22T14:39:59.333Z,9.04
2018-12-22T14:40:59.570Z,9.10
2018-12-22T14:43:03.719Z,9.11
2018-12-22T14:44:03.958Z,9.08
2018-12-22T14:46:08.129Z,9.01
2018-12-22T14:47:08.365Z,9.02
2018-12-22T14:49:12.524Z,8.94
2018-12-22T14:50:12.759Z,8.95
2018-12-22T14:52:16.929Z,8.81
2018-12-22T14:53:17.168Z,8.76
2018-12-22T14:55:21.342Z,8.66
2018-12-22T14:56:21.578Z,8.66
2018-12-22T14:58:25.728Z,8.58
2018-12-22T14:59:25.966Z,8.61
2018-12-22T15:01:30.142Z,8.63
2018-12-22T15:02:35.259Z,8.59
2018-12-22T15:04:23.452Z,8.50
2018-12-22T15:05:23.692Z,8.45
2018-12-22T15:07:27.865Z,8.56
2018-12-22T15:08:28.102Z,8.55
2018-12-22T15:10:32.277Z,8.63
2018-12-22T15:11:32.510Z,8.58
2018-12-22T15:13:36.662Z,8.62
2018-12-22T15:14:36.899Z,8.63
2018-12-22T15:16:41.070Z,8.61
2018-12-22T15:17:41.312Z,8.65
2018-12-22T15:19:45.457Z,8.59
2018-12-22T15:20:45.693Z,8.45
2018-12-22T15:22:49.864Z,8.47
2018-12-22T15:23:50.102Z,8.52
2018-12-22T15:25:54.282Z,8.50
2018-12-22T15:26:54.519Z,8.50
2018-12-22T15:28:58.669Z,8.41
2018-12-22T15:29:58.900Z,8.37
2018-12-22T15:32:03.578Z,8.30
2018-12-22T15:33:03.815Z,8.38
2018-12-22T15:35:07.966Z,8.34
2018-12-22T15:36:08.202Z,8.36
2018-12-22T15:38:12.376Z,8.28
2018-12-22T15:39:12.612Z,8.29
2018-12-22T15:41:16.779Z,8.45
2018-12-22T15:42:17.017Z,8.43
2018-12-22T15:44:10.094Z,8.50
2018-12-22T15:45:10.333Z,8.40
2018-12-22T15:47:14.507Z,8.44
2018-12-22T15:48:14.744Z,8.45
2018-12-22T15:50:18.897Z,8.59
2018-12-22T15:51:19.133Z,8.62
2018-12-22T15:53:23.313Z,8.55
2018-12-22T15:54:23.551Z,8.59
2018-12-22T15:56:27.725Z,8.58
2018-12-22T15:57:27.957Z,8.61
2018-12-22T15:59:32.110Z,8.58
2018-12-22T16:00:32.345Z,8.53
2018-12-22T16:02:36.515Z,8.53
2018-12-22T16:03:36.751Z,8.52
2018-12-22T16:05:40.924Z,8.56
2018-12-22T16:06:41.163Z,8.59
2018-12-22T16:08:45.339Z,8.65
2018-12-22T16:09:45.572Z,8.59
2018-12-22T16:11:49.743Z,8.59
2018-12-22T16:12:49.979Z,8.50
2018-12-22T16:14:43.064Z,8.62
2018-12-22T16:15:43.302Z,8.59
2018-12-22T16:17:47.472Z,8.56
2018-12-22T16:18:47.708Z,8.47
2018-12-22T16:20:51.862Z,8.45
2018-12-22T16:21:52.099Z,8.38
2018-12-22T16:23:56.281Z,8.38
2018-12-22T16:24:56.517Z,8.44
2018-12-22T16:27:00.685Z,8.45
2018-12-22T16:28:00.928Z,8.52
2018-12-22T16:30:05.073Z,8.53
2018-12-22T16:31:05.308Z,8.47
2018-12-22T16:33:09.479Z,8.48
2018-12-22T16:34:09.714Z,8.61
2018-12-22T16:36:13.883Z,8.59
2018-12-22T16:37:14.122Z,8.55
2018-12-22T16:39:18.274Z,8.48
2018-12-22T16:40:18.509Z,8.45
2018-12-22T16:42:22.684Z,8.59
2018-12-22T16:43:22.923Z,8.59
2018-12-22T16:45:27.071Z,8.70
2018-12-22T16:46:27.309Z,8.62
2018-12-22T16:48:31.485Z,8.73
2018-12-22T16:49:31.721Z,8.65
2018-12-22T16:51:35.966Z,8.68
2018-12-22T16:52:36.129Z,8.52
2018-12-22T16:54:29.214Z,8.53
2018-12-22T16:55:29.453Z,8.59
2018-12-22T16:57:33.626Z,8.59
2018-12-22T16:58:33.865Z,8.55
2018-12-22T17:00:38.019Z,8.47
2018-12-22T17:01:38.258Z,8.50
2018-12-22T17:03:42.430Z,8.52
2018-12-22T17:04:42.670Z,8.48
2018-12-22T17:06:46.844Z,8.43
2018-12-22T17:07:47.079Z,8.47
2018-12-22T17:09:51.230Z,8.44
2018-12-22T17:10:51.466Z,8.41
2018-12-22T17:12:55.641Z,8.45
2018-12-22T17:13:55.876Z,8.38
2018-12-22T17:16:00.023Z,8.43
2018-12-22T17:17:00.256Z,8.37
2018-12-22T17:19:04.429Z,8.33
2018-12-22T17:20:04.659Z,8.33
2018-12-22T17:22:08.827Z,8.36
2018-12-22T17:23:09.062Z,8.30
2018-12-22T17:25:13.212Z,8.29
2018-12-22T17:26:13.448Z,8.22
2018-12-22T17:28:17.617Z,8.23
2018-12-22T17:29:17.851Z,8.12
2018-12-22T17:31:21.997Z,8.07
2018-12-22T17:32:22.234Z,8.11
2018-12-22T17:34:15.334Z,8.07
2018-12-22T17:35:15.573Z,7.98
2018-12-22T17:37:19.747Z,8.01
2018-12-22T17:38:20.832Z,8.15
2018-12-22T17:40:24.133Z,8.11
2018-12-22T17:41:24.365Z,8.02
2018-12-22T17:43:28.537Z,8.15
2018-12-22T17:44:28.773Z,8.11
2018-12-22T17:46:32.921Z,8.11
2018-12-22T17:47:33.156Z,8.08
2018-12-22T17:49:37.327Z,8.11
2018-12-22T17:50:37.561Z,8.11
2018-12-22T17:52:41.736Z,8.18
2018-12-22T17:53:41.972Z,8.25
2018-12-22T17:55:46.118Z,8.20
2018-12-22T17:56:46.357Z,8.25
2018-12-22T17:58:50.523Z,8.30
2018-12-22T17:59:51.156Z,8.33
2018-12-22T18:01:54.902Z,8.26
2018-12-22T18:02:55.139Z,8.22
2018-12-22T18:04:48.233Z,8.26
2018-12-22T18:05:48.470Z,8.29
2018-12-22T18:07:52.641Z,8.26
2018-12-22T18:08:52.876Z,8.38
2018-12-22T18:10:57.026Z,8.36
2018-12-22T18:11:57.260Z,8.34
2018-12-22T18:14:01.434Z,8.29
2018-12-22T18:15:01.671Z,8.30
2018-12-22T18:17:05.851Z,8.33
2018-12-22T18:18:06.119Z,8.26
2018-12-22T18:20:10.292Z,8.23
2018-12-22T18:21:10.584Z,8.29
2018-12-22T18:23:14.756Z,8.36
2018-12-22T18:24:14.992Z,8.29
2018-12-22T18:26:19.140Z,8.30
2018-12-22T18:27:19.377Z,8.34
2018-12-22T18:29:23.542Z,8.41
2018-12-22T18:30:23.777Z,8.36
2018-12-22T18:32:27.923Z,8.25
2018-12-22T18:33:35.804Z,8.19
2018-12-22T18:35:32.334Z,8.25
2018-12-22T18:36:32.570Z,8.23
2018-12-22T18:38:36.737Z,8.25
2018-12-22T18:39:36.974Z,8.29
2018-12-22T18:41:41.116Z,8.22
2018-12-22T18:42:41.354Z,8.10
2018-12-22T18:44:34.470Z,8.11
2018-12-22T18:45:34.705Z,8.10
2018-12-22T18:47:38.850Z,8.15
2018-12-22T18:48:39.088Z,8.08
2018-12-22T18:50:43.256Z,8.10
2018-12-22T18:51:43.492Z,8.12
2018-12-22T18:53:47.722Z,8.16
2018-12-22T18:54:47.960Z,8.11
2018-12-22T18:56:52.124Z,8.23
2018-12-22T18:57:52.357Z,8.15
2018-12-22T18:59:56.588Z,8.12
2018-12-22T19:00:56.869Z,8.16
2018-12-22T19:03:01.019Z,8.26
2018-12-22T19:04:01.254Z,8.16
2018-12-22T19:06:05.422Z,8.18
2018-12-22T19:07:05.655Z,8.11
2018-12-22T19:09:09.824Z,8.15
2018-12-22T19:10:10.059Z,8.10
2018-12-22T19:12:14.208Z,8.04
2018-12-22T19:13:14.443Z,7.97
2018-12-22T19:15:18.609Z,7.89
2018-12-22T19:16:18.845Z,7.92
2018-12-22T19:18:22.985Z,7.77
2018-12-22T19:19:23.250Z,7.79
2018-12-22T19:21:27.442Z,7.85
2018-12-22T19:22:27.679Z,7.77
2018-12-22T19:24:20.776Z,7.79
2018-12-22T19:25:21.011Z,7.83
2018-12-22T19:27:25.166Z,7.80
2018-12-22T19:28:25.405Z,7.82
2018-12-22T19:30:29.563Z,7.83
2018-12-22T19:31:29.798Z,7.80
2018-12-22T19:33:33.944Z,7.80
2018-12-22T19:34:34.179Z,7.79
2018-12-22T19:36:38.348Z,7.79
2018-12-22T19:37:38.586Z,7.82
2018-12-22T19:39:42.753Z,7.83
2018-12-22T19:40:42.988Z,7.75
2018-12-22T19:42:47.137Z,7.74
2018-12-22T19:43:47.371Z,7.68
2018-12-22T19:45:51.540Z,7.69
2018-12-22T19:46:51.776Z,7.68
2018-12-22T19:48:55.923Z,7.60
2018-12-22T19:49:56.164Z,7.60
2018-12-22T19:52:00.328Z,7.85
2018-12-22T19:53:00.565Z,7.63
2018-12-22T19:54:53.672Z,7.75
2018-12-22T19:55:53.908Z,7.63
2018-12-22T19:57:58.057Z,7.64
2018-12-22T19:58:58.291Z,7.53
2018-12-22T20:01:02.459Z,7.49
2018-12-22T20:02:02.697Z,7.46
2018-12-22T20:04:06.854Z,7.45